createdAt,value
2019-04-21T05:26:28.628Z,8.33
2019-04-21T05:31:53.590Z,9.87
2019-04-21T05:36:56.739Z,4.47
2019-04-21T05:41:50.645Z,7.47
2019-04-21T05:47:18.810Z,7.27
2019-04-21T05:52:05.438Z,6.03
2019-04-21T05:57:10.150Z,7.77
2019-04-21T06:02:27.303Z,6.33
2019-04-21T06:07:23.008Z,8.40
2019-04-21T06:12:25.276Z,9.30
2019-04-21T06:17:30.302Z,10.10
2019-04-21T06:22:23.878Z,6.87
2019-04-21T06:27:34.396Z,10.63
2019-04-21T06:32:50.339Z,9.83
2019-04-21T06:37:49.121Z,8.70
2019-04-21T06:42:40.203Z,8.23
2019-04-21T06:53:01.076Z,9.33
2019-04-21T06:57:51.652Z,6.70
2019-04-21T07:03:04.654Z,9.23
2019-04-21T07:08:07.632Z,5.87
2019-04-21T07:13:00.468Z,9.37
2019-04-21T07:18:08.983Z,5.70
2019-04-21T07:23:05.235Z,6.87
2019-04-21T07:28:05.668Z,9.13
2019-04-21T07:33:33.389Z,6.30
2019-04-21T07:38:11.664Z,5.77
2019-04-21T07:43:05.662Z,7.57
2019-04-21T07:48:21.628Z,5.70
2019-04-21T07:53:30.250Z,3.70
2019-04-21T07:58:29.823Z,5.27
2019-04-21T08:03:26.586Z,4.60
2019-04-21T08:08:28.425Z,6.07
2019-04-21T08:13:40.209Z,4.37
2019-04-21T08:18:39.361Z,7.97
2019-04-21T08:23:37.096Z,6.57
2019-04-21T08:28:48.308Z,4.03
2019-04-21T08:33:56.471Z,7.93
2019-04-21T08:38:48.455Z,6.30
2019-04-21T08:43:51.893Z,6.33
2019-04-21T08:48:57.460Z,9.10
2019-04-21T08:54:08.003Z,8.10
2019-04-21T08:59:24.083Z,6.03
2019-04-21T09:04:23.398Z,8.13
2019-04-21T09:09:28.856Z,8.20
2019-04-21T09:14:30.938Z,8.30
2019-04-21T09:19:47.055Z,7.57
2019-04-21T09:24:33.378Z,10.73
2019-04-21T09:29:33.688Z,6.10
2019-04-21T09:34:30.552Z,6.03
2019-04-21T09:39:29.279Z,7.37
2019-04-21T09:44:33.306Z,6.63
2019-04-21T09:49:33.936Z,6.97
2019-04-21T09:54:41.017Z,10.97
2019-04-21T09:59:40.739Z,7.10
2019-04-21T10:04:40.190Z,9.03
2019-04-21T10:09:41.213Z,6.67
2019-04-21T10:14:43.016Z,8.50
2019-04-21T10:19:44.195Z,6.53
2019-04-21T10:24:46.619Z,5.37
2019-04-21T10:29:52.273Z,5.77
2019-04-21T10:34:53.364Z,4.10
2019-04-21T10:39:55.829Z,5.20
2019-04-21T10:44:58.878Z,6.47
2019-04-21T10:50:00.492Z,4.73
2019-04-21T10:55:19.098Z,4.60
2019-04-21T11:00:09.105Z,5.27
2019-04-21T11:05:09.345Z,4.90
2019-04-21T11:10:10.316Z,6.03
2019-04-21T11:15:11.830Z,4.80
2019-04-21T11:20:13.140Z,4.57
2019-04-21T11:25:14.001Z,4.40
2019-04-21T11:30:15.762Z,10.60
2019-04-21T11:35:17.156Z,4.93
2019-04-21T11:40:21.588Z,4.30
2019-04-21T11:45:28.403Z,5.07
2019-04-21T11:50:30.804Z,5.43
2019-04-21T11:55:34.344Z,4.73
2019-04-21T12:00:35.868Z,3.60
2019-04-21T12:05:37.293Z,4.37
2019-04-21T12:10:42.570Z,4.53
2019-04-21T12:15:45.074Z,4.77
2019-04-21T12:20:47.035Z,3.43
2019-04-21T12:25:49.421Z,5.13
2019-04-21T12:30:53.655Z,3.20
2019-04-21T12:35:55.639Z,3.53
2019-04-21T12:40:56.991Z,2.93
2019-04-21T12:45:58.094Z,6.17
2019-04-21T12:50:59.818Z,5.47
2019-04-21T12:56:02.123Z,3.33
2019-04-21T13:01:03.455Z,3.13
2019-04-21T13:06:05.522Z,2.13
2019-04-21T13:11:09.345Z,4.17
2019-04-21T13:16:09.703Z,1.93
2019-04-21T13:21:11.928Z,2.97
2019-04-21T13:26:13.236Z,2.93
2019-04-21T13:31:14.237Z,3.63
2019-04-21T13:36:15.808Z,3.23
2019-04-21T13:41:32.681Z,3.17
2019-04-21T13:46:22.798Z,2.53
2019-04-21T13:51:25.075Z,6.93
2019-04-21T13:56:26.688Z,4.13
2019-04-21T14:01:27.921Z,3.50
2019-04-21T14:06:30.038Z,2.67
2019-04-21T14:11:31.379Z,2.20
2019-04-21T14:16:34.046Z,3.00
2019-04-21T14:21:35.335Z,1.90
2019-04-21T14:26:36.345Z,1.73
2019-04-21T14:31:38.244Z,2.30
2019-04-21T14:36:39.243Z,2.63
2019-04-21T14:41:40.603Z,3.63
2019-04-21T14:46:47.082Z,2.17
2019-04-21T14:51:50.078Z,4.10
2019-04-21T14:56:51.264Z,5.03
2019-04-21T15:01:53.627Z,2.30
2019-04-21T15:06:55.097Z,9.70
2019-04-21T15:11:56.204Z,2.30
2019-04-21T15:16:57.124Z,2.93
2019-04-21T15:21:58.666Z,3.93
2019-04-21T15:27:01.010Z,1.83
2019-04-21T15:32:02.467Z,3.10
2019-04-21T15:37:04.135Z,2.43
2019-04-21T15:42:06.248Z,2.33
2019-04-21T15:47:08.184Z,2.83
2019-04-21T15:52:09.754Z,2.20
2019-04-21T15:57:14.116Z,1.77
2019-04-21T16:02:34.826Z,1.83
2019-04-21T16:07:36.226Z,1.97
2019-04-21T16:12:37.914Z,2.60
2019-04-21T16:17:39.454Z,2.10
2019-04-21T16:22:42.750Z,3.23
2019-04-21T16:27:43.849Z,4.73
2019-04-21T16:32:46.010Z,2.33
2019-04-21T16:37:49.854Z,2.43
2019-04-21T16:42:52.061Z,3.87
2019-04-21T16:47:55.399Z,2.20
2019-04-21T16:53:04.296Z,1.90
2019-04-21T16:58:13.160Z,2.20
2019-04-21T17:03:10.433Z,2.90
2019-04-21T17:08:11.848Z,2.13
2019-04-21T17:13:13.975Z,2.27
2019-04-21T17:18:31.571Z,2.33
2019-04-21T17:23:17.873Z,2.63
2019-04-21T17:28:19.599Z,2.83
2019-04-21T17:33:24.610Z,3.40
2019-04-21T17:38:23.934Z,2.40
2019-04-21T17:43:25.761Z,4.53
2019-04-21T17:48:27.195Z,4.07
2019-04-21T17:53:43.145Z,3.40
2019-04-21T17:58:56.703Z,2.17
2019-04-21T18:04:03.809Z,2.97
2019-04-21T18:09:13.893Z,2.97
2019-04-21T18:13:49.448Z,2.90
2019-04-21T18:18:50.811Z,3.57
2019-04-21T18:24:04.880Z,3.50
2019-04-21T18:28:59.159Z,3.23
2019-04-21T18:34:10.069Z,5.60
2019-04-21T18:39:43.634Z,3.93
2019-04-21T18:45:28.166Z,4.07
2019-04-21T18:49:54.434Z,4.40
2019-04-21T18:55:10.841Z,6.43
2019-04-21T18:59:59.464Z,2.73
2019-04-21T19:05:29.797Z,4.63
2019-04-21T19:10:47.946Z,3.80
2019-04-21T19:16:22.540Z,4.83
2019-04-21T19:21:03.092Z,3.83
2019-04-21T19:26:18.973Z,3.10
2019-04-21T19:31:12.688Z,5.27
2019-04-21T19:35:55.053Z,3.07
2019-04-21T19:41:10.376Z,5.77
2019-04-21T19:46:13.930Z,5.50
2019-04-21T19:51:18.309Z,4.50
2019-04-21T19:56:05.918Z,3.97
2019-04-21T20:01:07.574Z,5.33
2019-04-21T20:06:22.186Z,4.17
2019-04-21T20:11:32.311Z,10.60
2019-04-21T20:16:37.442Z,4.00
2019-04-21T20:21:17.063Z,3.43
2019-04-21T20:26:23.145Z,4.53
2019-04-21T20:31:37.288Z,5.13
2019-04-21T20:36:44.004Z,6.00
2019-04-21T20:41:40.959Z,2.93
2019-04-21T20:46:45.091Z,2.60
2019-04-21T20:51:54.356Z,4.17
2019-04-21T20:56:49.779Z,3.70
2019-04-21T21:01:57.430Z,4.13
2019-04-21T21:07:01.913Z,5.13
2019-04-21T21:12:19.009Z,5.90
2019-04-21T21:17:04.763Z,5.27
2019-04-21T21:22:01.646Z,4.73
2019-04-21T21:27:06.699Z,3.33
2019-04-21T21:32:18.493Z,3.40
2019-04-21T21:37:30.988Z,2.67
2019-04-21T21:42:02.766Z,4.80
2019-04-21T21:52:46.510Z,4.60
2019-04-21T21:57:45.420Z,5.43
2019-04-21T22:02:45.515Z,4.33
2019-04-21T22:07:42.699Z,3.97
2019-04-21T22:18:16.736Z,4.83
2019-04-21T22:23:11.334Z,5.30
